createdAt,value
2023-04-18T00:00:56.213Z,461.3077
2023-04-18T00:01:59.316Z,462.5385
2023-04-18T00:03:04.429Z,459.7692
2023-04-18T00:04:05.250Z,457.5385
2023-04-18T00:05:08.043Z,457.3846
2023-04-18T00:06:10.985Z,457.7692
2023-04-18T00:07:13.920Z,460.1538
2023-04-18T00:08:16.895Z,463.1538
2023-04-18T00:09:19.865Z,460.6154
2023-04-18T00:10:22.765Z,460.5385
2023-04-18T00:11:25.811Z,459.6923
2023-04-18T00:12:28.665Z,460.3077
2023-04-18T00:13:31.617Z,461.4615
2023-04-18T00:14:34.614Z,461.6154
2023-04-18T00:15:37.539Z,462.1538
2023-04-18T00:16:40.538Z,461.6923
2023-04-18T00:17:43.491Z,460.1538
2023-04-18T00:18:46.392Z,460.9231
2023-04-18T00:19:49.320Z,461.5385
2023-04-18T00:20:52.257Z,461.9231
2023-04-18T00:21:55.232Z,464.6154
2023-04-18T00:22:58.148Z,464.4615
2023-04-18T00:24:01.120Z,465.0769
2023-04-18T00:25:04.065Z,463.0000
2023-04-18T00:26:07.061Z,463.3846
2023-04-18T00:27:10.089Z,463.3846
2023-04-18T00:28:12.910Z,462.3846
2023-04-18T00:29:15.856Z,465.3846
2023-04-18T00:30:18.827Z,465.0769
2023-04-18T00:31:21.805Z,461.0000
2023-04-18T00:32:24.741Z,460.6154
2023-04-18T00:33:27.645Z,458.9231
2023-04-18T00:34:30.607Z,456.6923
2023-04-18T00:35:33.555Z,458.6154
2023-04-18T00:36:36.505Z,460.0000
2023-04-18T00:37:39.485Z,459.7692
2023-04-18T00:38:42.395Z,460.2308
2023-04-18T00:39:45.346Z,461.7692
2023-04-18T00:40:48.311Z,462.1538
2023-04-18T00:41:51.304Z,465.0769
2023-04-18T00:42:54.215Z,469.3846
2023-04-18T00:43:57.161Z,466.5385
2023-04-18T00:45:00.132Z,466.0000
2023-04-18T00:46:03.075Z,464.3846
2023-04-18T00:47:06.038Z,461.5385
2023-04-18T00:48:09.003Z,460.6923
2023-04-18T00:49:11.958Z,460.9231
2023-04-18T00:50:14.870Z,459.8462
2023-04-18T00:51:17.812Z,459.0000
2023-04-18T00:52:20.742Z,460.0769
2023-04-18T00:53:23.720Z,460.0000
2023-04-18T00:54:26.688Z,461.3077
2023-04-18T00:55:29.582Z,460.0000
2023-04-18T00:56:32.585Z,457.8462
2023-04-18T00:57:35.489Z,459.0000
2023-04-18T00:58:38.433Z,454.1538
2023-04-18T00:59:41.458Z,453.0769
2023-04-18T01:00:44.317Z,455.3846
2023-04-18T01:01:47.331Z,458.5385
2023-04-18T01:02:50.346Z,459.3077
2023-04-18T01:03:53.291Z,460.3846
2023-04-18T01:04:56.163Z,459.7692
2023-04-18T01:05:59.091Z,461.4615
2023-04-18T01:07:02.034Z,458.8462
2023-04-18T01:08:04.986Z,459.2308
2023-04-18T01:09:07.914Z,458.8462
2023-04-18T01:10:10.860Z,461.3077
2023-04-18T01:11:13.807Z,457.6923
2023-04-18T01:12:16.764Z,454.8462
2023-04-18T01:13:19.705Z,454.1538
2023-04-18T01:14:22.674Z,453.5385
2023-04-18T01:15:25.606Z,453.4615
2023-04-18T01:16:28.627Z,455.1538
2023-04-18T01:17:31.570Z,457.3846
2023-04-18T01:18:34.448Z,457.5385
2023-04-18T01:19:37.420Z,455.4615
2023-04-18T01:20:40.388Z,457.1538
2023-04-18T01:21:43.294Z,456.2308
2023-04-18T01:22:46.255Z,459.3077
2023-04-18T01:23:49.199Z,457.8462
2023-04-18T01:24:52.141Z,458.2308
2023-04-18T01:25:55.090Z,459.5385
2023-04-18T01:26:58.049Z,460.6154
2023-04-18T01:28:00.979Z,460.9231
2023-04-18T01:29:03.979Z,461.6923
2023-04-18T01:30:06.872Z,461.0769
2023-04-18T01:31:09.848Z,464.0769
2023-04-18T01:32:12.850Z,462.3846
2023-04-18T01:33:15.871Z,463.9231
2023-04-18T01:34:18.775Z,466.2308
2023-04-18T01:35:21.720Z,465.5385
2023-04-18T01:36:24.662Z,454.3846
2023-04-18T01:37:27.612Z,452.9231
2023-04-18T01:38:30.536Z,453.4615
2023-04-18T01:39:33.653Z,455.4615
2023-04-18T01:40:36.439Z,459.4615
2023-04-18T01:41:39.387Z,463.2308
2023-04-18T01:42:42.343Z,464.2308
2023-04-18T01:43:45.311Z,462.4615
2023-04-18T01:44:48.232Z,464.8462
2023-04-18T01:45:51.223Z,471.0000
2023-04-18T01:46:54.163Z,460.6154
2023-04-18T01:47:57.184Z,459.7692
2023-04-18T01:49:00.051Z,458.3846
2023-04-18T01:50:02.962Z,458.4615
2023-04-18T01:51:05.909Z,460.3077
2023-04-18T01:52:08.900Z,459.0000
2023-04-18T01:53:11.828Z,459.6923
2023-04-18T01:54:14.856Z,459.6154
2023-04-18T01:55:17.695Z,460.6923
2023-04-18T01:56:20.661Z,462.0000
2023-04-18T01:57:23.605Z,463.0769
2023-04-18T01:58:26.557Z,463.7692
2023-04-18T01:59:29.497Z,460.5385
2023-04-18T02:00:32.459Z,460.4615
2023-04-18T02:01:35.373Z,460.3846
2023-04-18T02:02:38.440Z,458.6154
2023-04-18T02:03:41.505Z,460.1538
2023-04-18T02:04:44.281Z,466.3077
2023-04-18T02:05:47.166Z,459.4615
2023-04-18T02:06:50.109Z,453.9231
2023-04-18T02:07:53.072Z,453.0769
2023-04-18T02:08:56.009Z,451.9231
2023-04-18T02:09:58.944Z,450.6923
2023-04-18T02:11:01.924Z,450.1538
2023-04-18T02:12:04.852Z,450.8462
2023-04-18T02:13:07.835Z,454.2308
2023-04-18T02:14:10.771Z,456.3077
2023-04-18T02:15:13.697Z,457.2308
2023-04-18T02:16:16.681Z,457.6923
2023-04-18T02:17:19.577Z,459.9231
2023-04-18T02:18:22.540Z,462.6923
2023-04-18T02:19:25.481Z,461.4615
2023-04-18T02:20:28.434Z,461.3846
2023-04-18T02:21:31.492Z,460.3077
2023-04-18T02:22:34.308Z,458.6154
2023-04-18T02:23:37.330Z,458.6154
2023-04-18T02:24:40.210Z,459.3846
2023-04-18T02:25:43.174Z,463.0000
2023-04-18T02:26:46.106Z,461.3077
2023-04-18T02:27:49.082Z,459.6923
2023-04-18T02:28:52.012Z,460.0769
2023-04-18T02:29:54.955Z,464.2308
2023-04-18T02:30:57.894Z,466.9231
2023-04-18T02:32:00.921Z,465.7692
2023-04-18T02:33:03.841Z,463.2308
2023-04-18T02:34:06.794Z,462.0000
2023-04-18T02:35:09.765Z,459.6154
2023-04-18T02:36:12.654Z,461.2308
2023-04-18T02:37:15.571Z,456.9231
2023-04-18T02:38:18.549Z,459.0000
2023-04-18T02:39:21.483Z,462.5385
2023-04-18T02:40:24.464Z,462.8462
2023-04-18T02:41:27.370Z,463.5385
2023-04-18T02:42:30.318Z,462.7692
2023-04-18T02:43:33.276Z,464.4615
2023-04-18T02:44:36.278Z,464.8462
2023-04-18T02:45:39.182Z,465.6923
2023-04-18T02:46:42.109Z,467.6923
2023-04-18T02:47:54.440Z,463.0769
2023-04-18T02:48:48.043Z,463.0769
2023-04-18T02:49:51.226Z,463.5385
2023-04-18T02:50:53.953Z,462.0769
2023-04-18T02:51:56.869Z,463.0769
2023-04-18T02:52:59.896Z,463.0000
2023-04-18T02:54:02.772Z,464.3077
2023-04-18T02:55:05.752Z,468.0769
2023-04-18T02:56:08.675Z,466.9231
2023-04-18T02:57:11.655Z,465.1538
2023-04-18T02:58:14.608Z,465.3846
2023-04-18T02:59:17.570Z,465.4615
2023-04-18T03:00:20.540Z,461.3077
2023-04-18T03:01:23.523Z,458.6154
2023-04-18T03:02:26.602Z,457.0769
2023-04-18T03:03:29.423Z,456.4615
2023-04-18T03:04:32.412Z,454.9231
2023-04-18T03:05:35.326Z,456.5385
2023-04-18T03:06:38.291Z,459.0769
2023-04-18T03:07:41.237Z,462.7692
2023-04-18T03:08:44.278Z,459.6154
2023-04-18T03:09:47.142Z,459.1538
2023-04-18T03:10:50.087Z,458.2308
2023-04-18T03:11:53.052Z,459.1538
2023-04-18T03:12:55.992Z,459.6923
2023-04-18T03:13:58.940Z,460.3846
2023-04-18T03:15:01.902Z,463.3077
2023-04-18T03:16:04.935Z,465.3846
2023-04-18T03:17:07.802Z,466.8462
2023-04-18T03:18:10.755Z,465.9231
2023-04-18T03:19:13.751Z,465.3846
2023-04-18T03:20:16.725Z,466.2308
2023-04-18T03:21:19.634Z,467.0000
2023-04-18T03:22:22.577Z,466.3077
2023-04-18T03:23:25.550Z,467.1538
2023-04-18T03:24:28.486Z,466.6923
2023-04-18T03:25:31.506Z,464.3846
2023-04-18T03:26:34.403Z,461.6923
2023-04-18T03:27:37.546Z,465.6923
2023-04-18T03:28:40.416Z,465.2308
2023-04-18T03:29:43.291Z,463.2308
2023-04-18T03:30:46.280Z,462.6154
2023-04-18T03:31:49.251Z,461.7692
2023-04-18T03:32:52.171Z,461.2308
2023-04-18T03:33:55.141Z,459.2308
2023-04-18T03:34:58.184Z,459.5385
2023-04-18T03:36:01.097Z,463.5385
2023-04-18T03:37:03.997Z,465.6154
2023-04-18T03:38:06.940Z,465.3077
2023-04-18T03:39:09.891Z,463.6923
2023-04-18T03:40:12.860Z,463.6154
2023-04-18T03:41:15.794Z,464.8462
2023-04-18T03:42:18.810Z,466.4615
2023-04-18T03:43:21.682Z,468.3077
2023-04-18T03:44:24.688Z,467.9231
2023-04-18T03:45:27.593Z,470.8462
2023-04-18T03:46:30.670Z,472.9231
2023-04-18T03:47:33.561Z,473.3077
2023-04-18T03:48:36.450Z,475.0769
2023-04-18T03:49:39.400Z,477.0000
2023-04-18T03:50:42.355Z,476.7692
2023-04-18T03:51:45.285Z,476.2308
2023-04-18T03:52:48.350Z,475.8462
2023-04-18T03:53:51.228Z,474.0769
2023-04-18T03:54:54.146Z,473.1538
2023-04-18T03:55:57.121Z,472.6923
2023-04-18T03:57:00.048Z,471.3077
2023-04-18T03:58:02.992Z,472.6923
2023-04-18T03:59:05.953Z,472.3846
2023-04-18T04:00:08.898Z,471.0769
2023-04-18T04:01:11.881Z,470.6154
2023-04-18T04:02:14.887Z,470.8462
2023-04-18T04:03:17.959Z,471.5385
2023-04-18T04:04:20.809Z,471.3846
2023-04-18T04:05:23.702Z,471.2308
2023-04-18T04:06:26.618Z,471.1538
2023-04-18T04:07:29.566Z,473.6923
2023-04-18T04:08:32.520Z,475.9231
2023-04-18T04:09:35.478Z,476.3077
2023-04-18T04:10:38.514Z,476.3846
2023-04-18T04:11:41.535Z,475.0769
2023-04-18T04:12:44.327Z,474.3077
2023-04-18T04:13:47.318Z,476.3846
2023-04-18T04:14:50.219Z,474.7692
2023-04-18T04:15:53.374Z,474.3846
2023-04-18T04:16:56.168Z,473.0769
2023-04-18T04:17:59.114Z,471.8462
2023-04-18T04:19:02.041Z,470.5385
2023-04-18T04:20:05.011Z,468.0000
2023-04-18T04:21:07.948Z,466.4615
2023-04-18T04:22:10.919Z,468.3077
2023-04-18T04:23:13.848Z,469.5385
2023-04-18T04:24:16.912Z,469.9231
2023-04-18T04:25:19.747Z,469.4615
2023-04-18T04:26:22.735Z,467.0000
2023-04-18T04:27:25.642Z,466.9231
2023-04-18T04:28:28.604Z,467.7692
2023-04-18T04:29:31.589Z,467.9231
2023-04-18T04:30:34.499Z,468.6154
2023-04-18T04:31:37.485Z,471.7692
2023-04-18T04:32:40.505Z,474.6154
2023-04-18T04:33:43.351Z,474.1538
2023-04-18T04:34:46.331Z,472.9231
2023-04-18T04:35:49.252Z,471.6154
2023-04-18T04:36:52.231Z,469.9231
2023-04-18T04:37:55.161Z,468.6154
2023-04-18T04:38:58.107Z,471.9231
2023-04-18T04:40:01.061Z,472.6154
2023-04-18T04:41:04.038Z,472.5385
2023-04-18T04:42:06.949Z,471.9231
2023-04-18T04:43:10.033Z,472.0000
2023-04-18T04:44:13.143Z,470.6923
2023-04-18T04:45:15.884Z,470.9231
2023-04-18T04:46:18.820Z,469.7692
2023-04-18T04:47:21.718Z,470.0769
2023-04-18T04:48:24.677Z,470.2308
2023-04-18T04:49:27.654Z,471.7692
2023-04-18T04:50:30.601Z,472.3077
2023-04-18T04:51:33.521Z,472.1538
2023-04-18T04:52:36.467Z,472.4615
2023-04-18T04:53:39.421Z,471.3077
2023-04-18T04:54:42.373Z,473.2308
2023-04-18T04:55:45.309Z,476.4615
2023-04-18T04:56:48.257Z,478.5385
2023-04-18T04:57:51.219Z,478.3077
2023-04-18T04:58:54.222Z,479.8462
2023-04-18T04:59:57.113Z,482.5385
2023-04-18T05:01:00.058Z,480.8462
2023-04-18T05:02:03.175Z,482.1538
2023-04-18T05:03:06.028Z,484.3846
2023-04-18T05:04:08.985Z,485.2308
2023-04-18T05:05:11.939Z,485.3846
2023-04-18T05:06:14.873Z,484.8462
2023-04-18T05:07:17.779Z,484.0000
2023-04-18T05:08:20.721Z,483.0000
2023-04-18T05:09:23.678Z,482.7692
2023-04-18T05:10:26.616Z,482.4615
2023-04-18T05:11:29.565Z,480.0769
2023-04-18T05:12:32.525Z,478.2308
2023-04-18T05:13:35.486Z,476.1538
2023-04-18T05:14:38.452Z,476.3077
2023-04-18T05:15:41.371Z,475.3846
2023-04-18T05:16:44.368Z,477.9231
2023-04-18T05:17:47.312Z,480.9231
2023-04-18T05:18:50.221Z,484.7692
2023-04-18T05:19:53.196Z,487.5385
2023-04-18T05:20:56.133Z,486.3077
2023-04-18T05:21:59.079Z,483.2308
2023-04-18T05:23:02.042Z,480.2308
2023-04-18T05:24:04.957Z,478.1538
2023-04-18T05:25:07.917Z,475.8462
2023-04-18T05:26:10.877Z,472.6923
2023-04-18T05:27:13.872Z,469.6923
2023-04-18T05:28:16.779Z,473.5385
2023-04-18T05:29:19.712Z,471.9231
2023-04-18T05:30:22.729Z,470.3846
2023-04-18T05:31:25.634Z,470.6923
2023-04-18T05:32:28.583Z,470.6923
2023-04-18T05:33:31.524Z,470.8462
2023-04-18T05:34:35.319Z,471.6923
2023-04-18T05:35:37.418Z,470.1538
2023-04-18T05:36:40.344Z,469.3077
2023-04-18T05:37:43.320Z,470.7692
2023-04-18T05:38:46.246Z,471.3077
2023-04-18T05:39:49.298Z,469.5385
2023-04-18T05:40:52.227Z,468.6923
2023-04-18T05:41:55.175Z,466.6154
2023-04-18T05:42:58.128Z,465.0000
2023-04-18T05:44:05.319Z,466.2308
2023-04-18T05:45:04.049Z,465.6923
2023-04-18T05:46:07.026Z,467.6923
2023-04-18T05:47:09.950Z,468.0000
2023-04-18T05:48:12.931Z,469.0769
2023-04-18T05:49:15.859Z,469.0000
2023-04-18T05:50:18.788Z,468.4615
2023-04-18T05:51:21.738Z,469.5385
2023-04-18T05:52:24.675Z,468.7692
2023-04-18T05:53:27.654Z,467.7692
2023-04-18T05:54:30.581Z,465.9231
2023-04-18T05:55:33.514Z,466.9231
2023-04-18T05:56:36.477Z,467.2308
2023-04-18T05:57:39.417Z,465.1538
2023-04-18T05:58:42.392Z,464.6923
2023-04-18T05:59:45.340Z,463.6154
2023-04-18T06:00:48.294Z,464.7692
2023-04-18T06:01:51.286Z,465.6923
2023-04-18T06:02:54.320Z,465.0000
2023-04-18T06:03:57.456Z,467.3846
2023-04-18T06:05:00.267Z,468.1538
2023-04-18T06:06:03.152Z,468.9231
2023-04-18T06:07:05.969Z,471.2308
2023-04-18T06:08:08.908Z,472.0769
2023-04-18T06:09:11.868Z,470.9231
2023-04-18T06:10:14.825Z,471.3846
2023-04-18T06:11:17.766Z,472.0000
2023-04-18T06:12:20.693Z,470.5385
2023-04-18T06:13:23.650Z,469.8462
2023-04-18T06:14:26.592Z,469.3846
2023-04-18T06:15:29.552Z,471.0769
2023-04-18T06:16:32.522Z,473.1538
2023-04-18T06:17:35.465Z,471.1538
2023-04-18T06:18:38.411Z,470.7692
2023-04-18T06:19:41.341Z,468.2308
2023-04-18T06:20:44.337Z,468.3846
2023-04-18T06:21:47.246Z,465.5385
2023-04-18T06:22:50.219Z,462.3077
2023-04-18T06:23:53.144Z,462.9231
2023-04-18T06:24:56.092Z,463.5385
2023-04-18T06:25:59.055Z,463.2308
2023-04-18T06:27:02.012Z,463.8462
2023-04-18T06:28:04.932Z,465.2308
2023-04-18T06:29:07.882Z,467.7692
2023-04-18T06:30:10.824Z,467.9231
2023-04-18T06:31:13.849Z,468.0769
2023-04-18T06:32:16.713Z,467.8462
2023-04-18T06:33:19.687Z,466.8462
2023-04-18T06:34:22.617Z,466.5385
2023-04-18T06:35:26.723Z,466.2308
2023-04-18T06:36:28.499Z,465.1538
2023-04-18T06:37:31.436Z,463.7692
2023-04-18T06:38:34.396Z,464.0769
2023-04-18T06:39:37.319Z,464.1538
2023-04-18T06:40:40.278Z,463.7692
2023-04-18T06:41:43.218Z,465.3077
2023-04-18T06:42:46.181Z,465.4615
2023-04-18T06:44:02.019Z,462.8462
2023-04-18T06:44:52.075Z,464.0769
2023-04-18T06:45:55.024Z,465.3846
2023-04-18T06:46:57.980Z,463.9231
2023-04-18T06:48:00.936Z,462.9231
2023-04-18T06:49:03.928Z,461.0769
2023-04-18T06:50:06.833Z,463.6923
2023-04-18T06:51:09.785Z,463.6154
2023-04-18T06:52:12.746Z,463.9231
2023-04-18T06:53:15.676Z,461.8462
2023-04-18T06:54:18.635Z,461.0769
2023-04-18T06:55:21.599Z,460.6923
2023-04-18T06:56:24.517Z,461.9231
2023-04-18T06:57:27.482Z,462.1538
2023-04-18T06:58:30.414Z,462.2308
2023-04-18T06:59:33.369Z,461.3846
2023-04-18T07:00:36.330Z,462.3846
2023-04-18T07:01:39.346Z,465.3077
2023-04-18T07:02:42.399Z,467.0000
2023-04-18T07:03:45.217Z,467.6923
2023-04-18T07:04:48.384Z,467.3846
2023-04-18T07:05:51.083Z,466.0000
2023-04-18T07:06:53.991Z,468.6923
2023-04-18T07:07:56.950Z,470.0769
2023-04-18T07:08:59.943Z,470.3077
2023-04-18T07:10:02.864Z,467.7692
2023-04-18T07:11:05.816Z,468.8462
2023-04-18T07:12:08.764Z,469.4615
2023-04-18T07:13:11.738Z,469.8462
2023-04-18T07:14:14.958Z,470.9231
2023-04-18T07:15:17.584Z,471.3846
2023-04-18T07:16:20.617Z,472.3077
2023-04-18T07:17:23.494Z,471.3846
2023-04-18T07:18:36.773Z,470.5385
2023-04-18T07:19:29.375Z,468.5385
2023-04-18T07:20:32.358Z,468.5385
2023-04-18T07:21:35.379Z,469.5385
2023-04-18T07:22:38.219Z,473.5385
2023-04-18T07:23:41.147Z,469.6923
2023-04-18T07:24:44.136Z,467.5385
2023-04-18T07:25:47.074Z,466.8462
2023-04-18T07:26:50.003Z,469.0769
2023-04-18T07:27:52.948Z,467.6923
2023-04-18T07:28:55.888Z,466.9231
2023-04-18T07:29:58.858Z,467.6154
2023-04-18T07:31:01.881Z,467.9231
2023-04-18T07:32:06.195Z,465.6923
2023-04-18T07:33:07.696Z,464.6154
2023-04-18T07:34:10.657Z,463.5385
2023-04-18T07:35:13.601Z,463.1538
2023-04-18T07:36:16.536Z,462.7692
2023-04-18T07:37:19.493Z,459.4615
2023-04-18T07:38:22.436Z,459.5385
2023-04-18T07:39:25.386Z,458.3846
2023-04-18T07:40:28.344Z,460.1538
2023-04-18T07:41:31.295Z,461.0000
2023-04-18T07:42:34.230Z,460.8462
2023-04-18T07:43:37.190Z,462.8462
2023-04-18T07:44:40.113Z,462.4615
2023-04-18T07:45:43.103Z,460.6154
2023-04-18T07:46:46.092Z,460.4615
2023-04-18T07:47:48.976Z,459.3846
2023-04-18T07:48:51.900Z,459.8462
2023-04-18T07:49:54.857Z,461.4615
2023-04-18T07:50:57.825Z,463.8462
2023-04-18T07:52:00.728Z,461.4615
2023-04-18T07:53:03.680Z,460.6923
2023-04-18T07:54:06.656Z,460.7692
2023-04-18T07:55:09.696Z,461.5385
2023-04-18T07:56:12.563Z,460.8462
2023-04-18T07:57:15.482Z,457.8462
2023-04-18T07:58:18.422Z,456.3077
2023-04-18T07:59:21.383Z,458.2308
2023-04-18T08:00:24.386Z,459.6923
2023-04-18T08:01:27.307Z,461.6923
2023-04-18T08:02:30.330Z,462.1538
2023-04-18T08:03:33.315Z,461.0000
2023-04-18T08:04:36.222Z,456.6154
2023-04-18T08:05:39.100Z,455.6154
2023-04-18T08:06:42.013Z,453.5385
2023-04-18T08:07:44.941Z,454.0769
2023-04-18T08:08:47.889Z,457.3846
2023-04-18T08:09:50.845Z,457.6154
2023-04-18T08:10:53.861Z,454.8462
2023-04-18T08:11:56.757Z,453.3077
2023-04-18T08:12:59.687Z,453.9231
2023-04-18T08:14:02.645Z,455.3077
2023-04-18T08:15:05.599Z,457.4615
2023-04-18T08:16:08.586Z,462.8462
2023-04-18T08:17:11.489Z,463.5385
2023-04-18T08:18:14.438Z,462.9231
2023-04-18T08:19:17.398Z,459.5385
2023-04-18T08:20:20.401Z,459.1538
2023-04-18T08:21:23.300Z,459.6154
2023-04-18T08:22:26.241Z,458.8462
2023-04-18T08:23:29.266Z,459.6154
2023-04-18T08:24:32.144Z,460.6923
2023-04-18T08:25:35.080Z,470.5385
2023-04-18T08:26:38.107Z,458.6154
2023-04-18T08:27:40.991Z,460.3846
2023-04-18T08:28:45.951Z,459.6154
2023-04-18T08:29:46.994Z,460.9231
2023-04-18T08:30:49.844Z,462.8462
2023-04-18T08:31:52.901Z,462.5385
2023-04-18T08:32:55.738Z,461.1538
2023-04-18T08:33:58.679Z,460.1538
2023-04-18T08:35:01.657Z,461.1538
2023-04-18T08:36:04.592Z,462.7692
2023-04-18T08:37:07.521Z,462.0769
2023-04-18T08:38:10.479Z,458.1538
2023-04-18T08:39:13.897Z,460.5385
2023-04-18T08:40:16.371Z,460.0769
2023-04-18T08:41:19.328Z,460.3077
2023-04-18T08:42:22.247Z,459.1538
2023-04-18T08:43:25.238Z,459.9231
2023-04-18T08:44:28.198Z,458.0769
2023-04-18T08:45:31.177Z,457.0769
2023-04-18T08:46:34.156Z,455.3846
2023-04-18T08:47:37.124Z,461.1538
2023-04-18T08:48:39.941Z,462.9231
2023-04-18T08:49:43.031Z,464.0000
2023-04-18T08:50:45.852Z,461.8462
2023-04-18T08:51:48.807Z,463.5385
2023-04-18T08:52:51.733Z,463.6923
2023-04-18T08:53:54.692Z,462.1538
2023-04-18T08:54:57.720Z,468.5385
2023-04-18T08:56:00.609Z,449.8462
2023-04-18T08:57:03.564Z,451.6923
2023-04-18T08:58:06.494Z,453.9231
2023-04-18T08:59:09.439Z,454.6923
2023-04-18T09:00:12.387Z,456.1538
2023-04-18T09:01:15.380Z,456.6923
2023-04-18T09:02:18.315Z,458.3077
2023-04-18T09:03:21.347Z,461.6154
2023-04-18T09:04:24.205Z,460.9231
2023-04-18T09:05:27.112Z,460.7692
2023-04-18T09:06:30.084Z,460.6923
2023-04-18T09:07:33.128Z,459.3077
2023-04-18T09:08:36.001Z,460.6154
2023-04-18T09:09:38.920Z,460.2308
2023-04-18T09:10:42.798Z,457.5385
2023-04-18T09:11:44.803Z,455.9231
2023-04-18T09:12:47.765Z,457.0000
2023-04-18T09:13:50.725Z,459.3077
2023-04-18T09:14:53.666Z,459.6923
2023-04-18T09:15:56.637Z,460.3846
2023-04-18T09:16:59.626Z,459.9231
2023-04-18T09:18:02.771Z,459.5385
2023-04-18T09:19:06.890Z,458.1538
2023-04-18T09:20:08.418Z,460.3077
2023-04-18T09:21:11.355Z,458.7692
2023-04-18T09:22:14.328Z,454.9231
2023-04-18T09:23:17.272Z,452.3846
2023-04-18T09:24:20.243Z,451.0769
2023-04-18T09:25:23.199Z,451.6923
2023-04-18T09:26:26.211Z,450.2308
2023-04-18T09:27:29.058Z,450.4615
2023-04-18T09:28:31.990Z,449.6923
2023-04-18T09:29:34.972Z,448.3846
2023-04-18T09:30:37.977Z,449.0000
2023-04-18T09:31:40.845Z,451.8462
2023-04-18T09:32:43.853Z,452.6923
2023-04-18T09:33:46.732Z,454.7692
2023-04-18T09:34:49.670Z,456.1538
2023-04-18T09:35:52.623Z,453.9231
2023-04-18T09:36:55.656Z,452.7692
2023-04-18T09:37:58.526Z,453.0000
2023-04-18T09:39:01.486Z,453.0769
2023-04-18T09:40:04.411Z,449.1538
2023-04-18T09:41:07.383Z,449.4615
2023-04-18T09:42:10.303Z,450.9231
2023-04-18T09:43:13.272Z,451.2308
2023-04-18T09:44:16.210Z,453.0000
2023-04-18T09:45:19.149Z,453.3077
2023-04-18T09:46:22.110Z,455.3846
2023-04-18T09:47:25.072Z,455.0000
2023-04-18T09:48:28.119Z,452.6154
2023-04-18T09:49:31.033Z,453.4615
2023-04-18T09:50:33.954Z,454.3077
2023-04-18T09:51:36.882Z,451.9231
2023-04-18T09:52:39.858Z,451.2308
2023-04-18T09:53:42.807Z,450.1538
2023-04-18T09:54:48.122Z,450.4615
2023-04-18T09:55:48.666Z,447.4615
2023-04-18T09:56:51.638Z,445.8462
2023-04-18T09:57:54.566Z,444.4615
2023-04-18T09:58:57.520Z,443.3077
2023-04-18T10:00:00.508Z,443.5385
2023-04-18T10:01:03.486Z,443.2308
2023-04-18T10:02:06.564Z,443.8462
2023-04-18T10:03:09.419Z,446.7692
2023-04-18T10:04:12.525Z,448.9231
2023-04-18T10:05:15.258Z,448.9231
2023-04-18T10:06:18.150Z,444.6923
2023-04-18T10:07:21.106Z,444.1538
2023-04-18T10:08:24.081Z,445.6154
2023-04-18T10:09:27.000Z,446.5385
2023-04-18T10:10:29.957Z,448.1538
2023-04-18T10:11:32.906Z,445.4615
2023-04-18T10:12:35.839Z,443.8462
2023-04-18T10:13:38.951Z,442.0769
2023-04-18T10:14:41.733Z,440.9231
2023-04-18T10:15:45.326Z,441.9231
2023-04-18T10:16:49.268Z,442.0000
2023-04-18T10:18:02.814Z,441.0769
2023-04-18T10:18:53.547Z,442.5385
2023-04-18T10:19:56.479Z,444.9231
2023-04-18T10:20:59.427Z,443.3077
2023-04-18T10:22:02.410Z,442.6923
2023-04-18T10:23:05.341Z,445.1538
2023-04-18T10:24:08.299Z,446.6923
2023-04-18T10:25:11.214Z,448.3846
2023-04-18T10:26:14.187Z,450.8462
2023-04-18T10:27:17.108Z,450.1538
2023-04-18T10:28:20.090Z,456.3077
2023-04-18T10:29:23.002Z,450.3077
2023-04-18T10:30:25.969Z,445.6154
2023-04-18T10:31:28.979Z,444.4615
2023-04-18T10:32:31.881Z,443.5385
2023-04-18T10:33:34.862Z,446.2308
2023-04-18T10:34:37.805Z,443.1538
2023-04-18T10:35:41.398Z,442.0769
2023-04-18T10:36:43.653Z,443.0769
2023-04-18T10:37:46.614Z,448.7692
2023-04-18T10:38:49.600Z,451.1538
2023-04-18T10:39:52.528Z,450.3077
2023-04-18T10:40:55.471Z,448.5385
2023-04-18T10:41:58.380Z,448.3077
2023-04-18T10:43:01.345Z,447.4615
2023-04-18T10:44:04.701Z,444.7692
2023-04-18T10:45:07.405Z,443.5385
2023-04-18T10:46:17.323Z,442.6154
2023-04-18T10:47:13.133Z,441.5385
2023-04-18T10:48:16.097Z,446.3077
2023-04-18T10:49:19.034Z,430.4615
2023-04-18T10:50:21.959Z,439.3077
2023-04-18T10:51:24.930Z,440.8462
2023-04-18T10:52:27.870Z,442.1538
2023-04-18T10:53:30.890Z,444.7692
2023-04-18T10:54:33.763Z,442.9231
2023-04-18T10:55:36.711Z,444.1538
2023-04-18T10:56:39.661Z,446.5385
2023-04-18T10:57:42.614Z,446.8462
2023-04-18T10:58:45.596Z,446.6923
2023-04-18T10:59:48.513Z,448.0000
2023-04-18T11:00:51.547Z,451.6923
2023-04-18T11:01:54.438Z,449.0000
2023-04-18T11:02:57.452Z,445.8462
2023-04-18T11:04:00.456Z,442.6154
2023-04-18T11:05:03.244Z,441.5385
2023-04-18T11:06:06.202Z,435.8462
2023-04-18T11:07:09.181Z,436.3077
2023-04-18T11:08:12.110Z,438.0000
2023-04-18T11:09:15.086Z,436.8462
2023-04-18T11:10:18.036Z,437.0000
2023-04-18T11:11:20.953Z,433.3846
2023-04-18T11:12:23.952Z,436.4615
2023-04-18T11:13:26.845Z,435.0769
2023-04-18T11:14:29.801Z,434.2308
2023-04-18T11:15:32.741Z,437.0769
2023-04-18T11:16:35.926Z,439.1538
2023-04-18T11:17:38.649Z,443.3846
2023-04-18T11:18:41.595Z,444.1538
2023-04-18T11:19:44.569Z,443.3846
2023-04-18T11:20:47.503Z,444.6154
2023-04-18T11:21:50.437Z,446.4615
2023-04-18T11:22:53.407Z,447.1538
2023-04-18T11:23:56.332Z,442.5385
2023-04-18T11:24:59.283Z,442.1538
2023-04-18T11:26:02.356Z,440.1538
2023-04-18T11:27:05.252Z,441.5385
2023-04-18T11:28:08.192Z,441.6154
2023-04-18T11:29:11.090Z,442.3077
2023-04-18T11:30:14.031Z,444.6923
2023-04-18T11:31:17.014Z,445.4615
2023-04-18T11:32:19.974Z,444.3846
2023-04-18T11:33:22.968Z,443.3846
2023-04-18T11:34:25.815Z,446.3846
2023-04-18T11:35:28.817Z,445.3077
2023-04-18T11:36:31.737Z,446.8462
2023-04-18T11:37:34.689Z,446.1538
2023-04-18T11:38:37.616Z,448.4615
2023-04-18T11:39:40.567Z,448.3846
2023-04-18T11:40:43.516Z,447.5385
2023-04-18T11:41:46.500Z,445.7692
2023-04-18T11:42:49.420Z,445.0769
2023-04-18T11:43:52.406Z,444.4615
2023-04-18T11:44:55.316Z,444.3077
2023-04-18T11:45:58.307Z,445.0769
2023-04-18T11:47:01.219Z,446.8462
2023-04-18T11:48:04.241Z,448.1538
2023-04-18T11:49:07.132Z,445.6154
2023-04-18T11:50:10.202Z,443.3077
2023-04-18T11:51:13.058Z,444.3077
2023-04-18T11:52:15.963Z,442.1538
2023-04-18T11:53:18.909Z,446.6923
2023-04-18T11:54:21.890Z,441.0000
2023-04-18T11:55:24.816Z,437.0769
2023-04-18T11:56:28.102Z,438.8462
2023-04-18T11:57:30.717Z,440.1538
2023-04-18T11:58:33.692Z,439.9231
2023-04-18T11:59:36.638Z,440.0769
2023-04-18T12:00:39.679Z,439.1538
2023-04-18T12:01:42.520Z,439.7692
2023-04-18T12:02:45.575Z,444.4615
2023-04-18T12:03:48.716Z,449.7692
2023-04-18T12:04:51.659Z,443.0769
2023-04-18T12:05:54.476Z,448.0000
2023-04-18T12:06:57.296Z,440.5385
2023-04-18T12:08:00.258Z,438.3846
2023-04-18T12:09:03.217Z,442.3077
2023-04-18T12:10:06.183Z,442.6923
2023-04-18T12:11:09.143Z,441.4615
2023-04-18T12:12:12.082Z,442.6154
2023-04-18T12:13:15.048Z,441.6154
2023-04-18T12:14:18.002Z,438.5385
2023-04-18T12:15:20.968Z,437.3846
2023-04-18T12:16:23.953Z,440.0000
2023-04-18T12:17:26.942Z,441.0000
2023-04-18T12:18:29.868Z,440.5385
2023-04-18T12:19:32.830Z,440.2308